Time;durP1;ratioP1;P1;durP2;ratioP2;P2;SDS_P1;SDS_P2;PMS_P1;PMS_P2;Temp;Humidity;BMP_temperature;BMP_pressure;BME280_temperature;BME280_humidity;BME280_pressure;Samples;Min_cycle;Max_cycle;Signal;HPM_P1;HPM_P2
2023/05/31 00:01:16;;;;;;;;;;;10.70;53.80;;;;;;4071670;29;19966;-87
2023/05/31 00:03:40;;;;;;;;;;;10.70;54.00;;;;;;4072511;29;19925;-88
2023/05/31 00:06:01;;;;;;;;;;;10.60;54.40;;;;;;4083078;29;19919;-88
2023/05/31 00:08:22;;;;;;;;;;;10.60;54.40;;;;;;4084771;29;19919;-87
2023/05/31 00:10:43;;;;;;;;;;;10.60;53.90;;;;;;4086436;29;19919;-86
2023/05/31 00:13:04;;;;;;;;;;;10.50;54.30;;;;;;4073800;29;19986;-88
2023/05/31 00:15:25;;;;;;;;;;;10.50;54.10;;;;;;4084487;29;19981;-90
2023/05/31 00:17:45;;;;;;;;;;;10.40;54.10;;;;;;4070900;29;19919;-87
2023/05/31 00:20:06;;;;;;;;;;;10.50;54.20;;;;;;4080930;29;20178;-88
2023/05/31 00:22:27;;;;;;;;;;;10.40;54.30;;;;;;4081319;29;19918;-88
2023/05/31 00:24:48;;;;;;;;;;;10.30;54.20;;;;;;4080948;29;20295;-86
2023/05/31 00:27:09;;;;;;;;;;;10.30;54.40;;;;;;4067967;29;19914;-88
2023/05/31 00:29:30;;;;;;;;;;;10.30;54.60;;;;;;4080729;29;19945;-89
2023/05/31 00:31:51;;;;;;;;;;;10.30;54.60;;;;;;4083900;29;19919;-88
2023/05/31 00:34:16;;;;;;;;;;;10.20;54.60;;;;;;4084958;29;20152;-87
2023/05/31 00:36:36;;;;;;;;;;;10.20;54.60;;;;;;4083563;29;20074;-85
2023/05/31 00:38:57;;;;;;;;;;;10.20;54.70;;;;;;4069339;29;19922;-88
2023/05/31 00:41:18;;;;;;;;;;;10.10;54.80;;;;;;4080717;29;19914;-86
2023/05/31 00:43:39;;;;;;;;;;;10.10;55.00;;;;;;4069391;29;19962;-87
2023/05/31 00:46:00;;;;;;;;;;;10.00;56.00;;;;;;4070130;29;19954;-86
2023/05/31 00:48:21;;;;;;;;;;;10.00;55.00;;;;;;4081932;29;19919;-86
2023/05/31 00:50:42;;;;;;;;;;;10.00;55.10;;;;;;4067738;29;20451;-87
2023/05/31 00:53:03;;;;;;;;;;;10.00;55.00;;;;;;4083748;29;19915;-86
2023/05/31 00:55:24;;;;;;;;;;;9.90;55.10;;;;;;4069748;29;19924;-87
2023/05/31 00:57:45;;;;;;;;;;;9.80;55.00;;;;;;4071000;29;19919;-86
2023/05/31 01:00:07;;;;;;;;;;;9.80;54.30;;;;;;4086610;29;19914;-85
2023/05/31 01:02:32;;;;;;;;;;;9.80;54.70;;;;;;4070821;29;19998;-87
2023/05/31 01:04:53;;;;;;;;;;;9.80;55.00;;;;;;4080323;29;19966;-87
2023/05/31 01:07:14;;;;;;;;;;;9.80;55.20;;;;;;4082554;29;19915;-86
2023/05/31 01:09:36;;;;;;;;;;;9.70;55.40;;;;;;4073244;29;19989;-87
2023/05/31 01:12:00;;;;;;;;;;;9.70;55.40;;;;;;4086089;29;19946;-87
2023/05/31 01:14:24;;;;;;;;;;;9.70;55.60;;;;;;4081146;29;19919;-87
2023/05/31 01:16:47;;;;;;;;;;;9.60;55.60;;;;;;4080910;29;19921;-87
2023/05/31 01:19:12;;;;;;;;;;;9.70;55.60;;;;;;4083563;29;19925;-87
2023/05/31 01:21:51;;;;;;;;;;;9.60;55.60;;;;;;4086707;29;19915;-87
2023/05/31 01:24:18;;;;;;;;;;;9.60;55.80;;;;;;4088062;29;19918;-87
2023/05/31 01:26:41;;;;;;;;;;;9.50;55.20;;;;;;4086000;29;19962;-87
2023/05/31 01:29:09;;;;;;;;;;;9.50;55.40;;;;;;4085022;29;19919;-87
2023/05/31 01:31:31;;;;;;;;;;;9.50;55.60;;;;;;4074032;29;19927;-87
2023/05/31 01:33:52;;;;;;;;;;;9.50;55.90;;;;;;4071309;29;19919;-87
2023/05/31 01:36:13;;;;;;;;;;;9.50;55.90;;;;;;4084904;29;19996;-87
2023/05/31 01:38:34;;;;;;;;;;;9.40;55.90;;;;;;4071316;29;19970;-86
2023/05/31 01:40:55;;;;;;;;;;;9.40;55.80;;;;;;4085750;29;19921;-89
2023/05/31 01:43:16;;;;;;;;;;;9.40;55.90;;;;;;4072569;29;19924;-85
2023/05/31 01:45:38;;;;;;;;;;;9.40;56.00;;;;;;4089702;29;19921;-87
2023/05/31 01:48:01;;;;;;;;;;;9.40;56.00;;;;;;4082422;29;19926;-88
2023/05/31 01:50:23;;;;;;;;;;;9.40;56.10;;;;;;4095680;29;19927;-86
2023/05/31 01:52:44;;;;;;;;;;;9.30;56.20;;;;;;4090092;29;19915;-87
2023/05/31 01:55:05;;;;;;;;;;;9.30;56.20;;;;;;4084982;29;20093;-86
2023/05/31 01:57:27;;;;;;;;;;;9.30;56.20;;;;;;4080025;29;19967;-87
2023/05/31 01:59:49;;;;;;;;;;;9.30;56.10;;;;;;4083499;29;19946;-88
2023/05/31 02:02:10;;;;;;;;;;;9.30;56.30;;;;;;4083867;29;19915;-87
2023/05/31 02:04:31;;;;;;;;;;;9.30;56.30;;;;;;4072739;29;20503;-86
2023/05/31 02:06:52;;;;;;;;;;;9.30;56.40;;;;;;4084109;29;19926;-86
2023/05/31 02:09:13;;;;;;;;;;;9.20;56.50;;;;;;4068951;29;20437;-88
2023/05/31 02:11:34;;;;;;;;;;;9.20;56.40;;;;;;4070155;29;19923;-88
2023/05/31 02:13:55;;;;;;;;;;;9.20;56.70;;;;;;4083605;29;19949;-87
2023/05/31 02:16:16;;;;;;;;;;;9.20;56.70;;;;;;4084878;29;19921;-86
2023/05/31 02:18:37;;;;;;;;;;;9.20;56.70;;;;;;4082827;29;19958;-87
2023/05/31 02:20:58;;;;;;;;;;;9.20;56.70;;;;;;4083816;29;19919;-86
2023/05/31 02:23:19;;;;;;;;;;;9.20;56.70;;;;;;4086509;29;19915;-86
2023/05/31 02:25:40;;;;;;;;;;;9.20;57.10;;;;;;4088325;29;19957;-87
2023/05/31 02:28:01;;;;;;;;;;;9.20;56.90;;;;;;4083543;29;19923;-85
2023/05/31 02:30:21;;;;;;;;;;;9.10;56.70;;;;;;4085836;29;19990;-87
2023/05/31 02:32:42;;;;;;;;;;;9.10;56.60;;;;;;4075722;29;20017;-89
2023/05/31 02:35:04;;;;;;;;;;;9.10;56.80;;;;;;4089925;29;19979;-85
2023/05/31 02:37:25;;;;;;;;;;;9.00;56.90;;;;;;4064306;29;20620;-85
2023/05/31 02:39:46;;;;;;;;;;;9.10;57.30;;;;;;4083680;29;19919;-86
2023/05/31 02:42:07;;;;;;;;;;;9.00;57.10;;;;;;4080955;29;20387;-84
2023/05/31 02:44:27;;;;;;;;;;;9.00;57.10;;;;;;4063736;29;19922;-85
2023/05/31 02:46:48;;;;;;;;;;;9.00;57.10;;;;;;4081452;29;19918;-85
2023/05/31 02:49:09;;;;;;;;;;;8.90;57.20;;;;;;4083113;29;19919;-84
2023/05/31 02:51:30;;;;;;;;;;;8.90;57.20;;;;;;4067132;29;19969;-86
2023/05/31 02:53:51;;;;;;;;;;;8.90;57.10;;;;;;4076670;29;19969;-87
2023/05/31 02:56:12;;;;;;;;;;;8.90;57.10;;;;;;4066681;29;19911;-85
2023/05/31 02:58:32;;;;;;;;;;;8.80;57.30;;;;;;4066542;29;19923;-86
2023/05/31 03:00:53;;;;;;;;;;;8.80;57.40;;;;;;4067846;29;19915;-85
2023/05/31 03:03:18;;;;;;;;;;;8.80;57.50;;;;;;4068751;29;19957;-84
2023/05/31 03:05:39;;;;;;;;;;;8.80;57.50;;;;;;4083315;29;19915;-85
2023/05/31 03:08:00;;;;;;;;;;;8.80;57.60;;;;;;4083954;29;19915;-86
2023/05/31 03:10:21;;;;;;;;;;;8.80;57.90;;;;;;4082855;29;19927;-85
2023/05/31 03:12:42;;;;;;;;;;;8.80;57.70;;;;;;4083622;29;19915;-86
2023/05/31 03:15:04;;;;;;;;;;;8.70;57.50;;;;;;4083160;29;20534;-86
2023/05/31 03:17:25;;;;;;;;;;;8.70;57.30;;;;;;4082316;29;19919;-85
2023/05/31 03:19:45;;;;;;;;;;;8.70;57.50;;;;;;4082197;29;19914;-85
2023/05/31 03:22:06;;;;;;;;;;;8.70;57.30;;;;;;4074325;29;19922;-86
2023/05/31 03:24:27;;;;;;;;;;;8.70;57.30;;;;;;4084882;29;19926;-85
2023/05/31 03:26:48;;;;;;;;;;;8.70;57.40;;;;;;4072901;29;19947;-86
2023/05/31 03:29:09;;;;;;;;;;;8.60;57.40;;;;;;4087908;29;19919;-86
2023/05/31 03:31:30;;;;;;;;;;;8.60;57.50;;;;;;4072468;29;19958;-86
2023/05/31 03:33:51;;;;;;;;;;;8.60;57.80;;;;;;4070796;29;20054;-86
2023/05/31 03:36:12;;;;;;;;;;;8.70;57.90;;;;;;4071738;29;19915;-85
2023/05/31 03:38:32;;;;;;;;;;;8.70;58.10;;;;;;4085719;29;19922;-85
2023/05/31 03:40:53;;;;;;;;;;;8.70;58.20;;;;;;4087325;29;19922;-86
2023/05/31 03:43:14;;;;;;;;;;;8.70;59.10;;;;;;4073677;29;19915;-86
2023/05/31 03:45:35;;;;;;;;;;;8.70;58.50;;;;;;4074770;29;19970;-87
2023/05/31 03:47:56;;;;;;;;;;;8.70;58.70;;;;;;4073406;29;19915;-88
2023/05/31 03:50:17;;;;;;;;;;;8.70;59.30;;;;;;4075988;29;19919;-87
2023/05/31 03:52:38;;;;;;;;;;;8.80;59.80;;;;;;4088879;29;19983;-86
2023/05/31 03:54:59;;;;;;;;;;;8.70;59.70;;;;;;4078238;29;19926;-87
2023/05/31 03:57:20;;;;;;;;;;;8.80;59.80;;;;;;4075502;29;20293;-87
2023/05/31 03:59:41;;;;;;;;;;;8.80;60.10;;;;;;4087183;29;19919;-88
2023/05/31 04:02:02;;;;;;;;;;;8.90;61.30;;;;;;4085994;29;19938;-87
2023/05/31 04:04:23;;;;;;;;;;;9.00;62.30;;;;;;4072262;29;19978;-86
2023/05/31 04:06:44;;;;;;;;;;;9.10;63.00;;;;;;4087950;29;20584;-87
2023/05/31 04:09:05;;;;;;;;;;;9.10;62.50;;;;;;4089042;29;20105;-87
2023/05/31 04:11:25;;;;;;;;;;;9.20;63.00;;;;;;4087509;29;20084;-84
2023/05/31 04:13:46;;;;;;;;;;;9.30;62.90;;;;;;4085519;29;19925;-87
2023/05/31 04:16:07;;;;;;;;;;;9.40;64.20;;;;;;4083970;29;20011;-86
2023/05/31 04:18:28;;;;;;;;;;;9.40;65.20;;;;;;4081800;29;19915;-86
2023/05/31 04:20:49;;;;;;;;;;;9.60;65.60;;;;;;4070631;29;19942;-86
2023/05/31 04:23:10;;;;;;;;;;;9.70;66.40;;;;;;4086138;29;19943;-86
2023/05/31 04:25:31;;;;;;;;;;;9.80;66.60;;;;;;4070615;29;19921;-87
2023/05/31 04:27:51;;;;;;;;;;;9.90;66.80;;;;;;4085206;29;19952;-88
2023/05/31 04:30:12;;;;;;;;;;;10.10;66.80;;;;;;4086589;29;19946;-86
2023/05/31 04:32:34;;;;;;;;;;;10.10;66.00;;;;;;4086700;29;19921;-85
2023/05/31 04:34:57;;;;;;;;;;;10.30;67.00;;;;;;4087476;29;20257;-86
2023/05/31 04:37:18;;;;;;;;;;;10.40;66.90;;;;;;4084595;29;19919;-86
2023/05/31 04:39:39;;;;;;;;;;;10.50;67.40;;;;;;4084510;29;19962;-87
2023/05/31 04:42:00;;;;;;;;;;;10.60;67.60;;;;;;4083386;29;19919;-86
2023/05/31 04:44:21;;;;;;;;;;;10.80;68.10;;;;;;4085143;29;19926;-87
2023/05/31 04:46:42;;;;;;;;;;;10.90;68.30;;;;;;4085324;29;19914;-84
2023/05/31 04:49:03;;;;;;;;;;;11.00;68.30;;;;;;4083561;29;19934;-86
2023/05/31 04:51:24;;;;;;;;;;;11.20;68.20;;;;;;4068131;29;19934;-87
2023/05/31 04:53:45;;;;;;;;;;;11.30;67.50;;;;;;4068983;29;19918;-84
2023/05/31 04:56:07;;;;;;;;;;;11.40;65.60;;;;;;4084844;29;19914;-87
2023/05/31 04:58:28;;;;;;;;;;;11.40;66.00;;;;;;4069381;29;19977;-86
2023/05/31 05:00:49;;;;;;;;;;;11.50;66.10;;;;;;4082957;29;20006;-86
2023/05/31 05:03:10;;;;;;;;;;;11.60;65.70;;;;;;4083834;29;20006;-88
2023/05/31 05:05:31;;;;;;;;;;;11.70;65.50;;;;;;4081156;29;19929;-86
2023/05/31 05:07:52;;;;;;;;;;;11.80;64.60;;;;;;4083827;29;20779;-86
2023/05/31 05:10:13;;;;;;;;;;;11.80;63.20;;;;;;4068458;29;20017;-87
2023/05/31 05:12:34;;;;;;;;;;;11.90;62.60;;;;;;4066222;29;19925;-86
2023/05/31 05:14:55;;;;;;;;;;;12.00;62.90;;;;;;4083350;29;19943;-85
2023/05/31 05:17:16;;;;;;;;;;;12.00;62.60;;;;;;4083137;29;19919;-85
2023/05/31 05:19:37;;;;;;;;;;;12.20;63.20;;;;;;4079252;29;19919;-86
2023/05/31 05:21:57;;;;;;;;;;;12.20;63.10;;;;;;4079734;29;19915;-86
2023/05/31 05:24:18;;;;;;;;;;;12.20;63.10;;;;;;4083356;29;19978;-85
2023/05/31 05:26:39;;;;;;;;;;;12.30;62.50;;;;;;4083413;29;20019;-88
2023/05/31 05:29:00;;;;;;;;;;;12.40;62.20;;;;;;4080865;29;19919;-89
2023/05/31 05:31:21;;;;;;;;;;;12.40;62.00;;;;;;4083401;29;19926;-84
2023/05/31 05:33:41;;;;;;;;;;;12.50;62.10;;;;;;4083638;29;20137;-85
2023/05/31 05:36:02;;;;;;;;;;;12.60;62.20;;;;;;4086751;29;19969;-85
2023/05/31 05:38:23;;;;;;;;;;;12.50;61.90;;;;;;4084312;29;19915;-86
2023/05/31 05:40:44;;;;;;;;;;;12.60;62.00;;;;;;4084526;29;19915;-86
2023/05/31 05:43:05;;;;;;;;;;;12.60;62.40;;;;;;4083349;29;20378;-86
2023/05/31 05:45:26;;;;;;;;;;;12.70;62.70;;;;;;4084439;29;19921;-85
2023/05/31 05:47:48;;;;;;;;;;;12.80;62.70;;;;;;4073091;29;19923;-86
2023/05/31 05:50:10;;;;;;;;;;;13.00;63.20;;;;;;4085031;29;19926;-87
2023/05/31 05:52:33;;;;;;;;;;;13.00;62.50;;;;;;4085050;29;20379;-87
2023/05/31 05:54:55;;;;;;;;;;;13.00;62.70;;;;;;4083835;29;19966;-86
2023/05/31 05:57:16;;;;;;;;;;;13.10;62.50;;;;;;4067942;29;20628;-85
2023/05/31 05:59:37;;;;;;;;;;;13.20;62.60;;;;;;4086376;29;20324;-87
2023/05/31 06:02:00;;;;;;;;;;;13.30;62.30;;;;;;4072419;29;21456;-87
2023/05/31 06:04:21;;;;;;;;;;;13.40;62.10;;;;;;4083762;29;20285;-87
2023/05/31 06:06:41;;;;;;;;;;;13.40;62.00;;;;;;4084018;29;19926;-87
2023/05/31 06:09:02;;;;;;;;;;;13.40;61.90;;;;;;4083017;29;19926;-86
2023/05/31 06:11:23;;;;;;;;;;;13.60;62.30;;;;;;4082256;29;19933;-84
2023/05/31 06:13:44;;;;;;;;;;;13.60;61.80;;;;;;4080845;29;20006;-88
2023/05/31 06:16:05;;;;;;;;;;;13.70;61.60;;;;;;4082311;29;19922;-87
2023/05/31 06:18:26;;;;;;;;;;;13.80;61.40;;;;;;4069526;29;19922;-86
2023/05/31 06:20:46;;;;;;;;;;;13.90;61.40;;;;;;4084982;29;19919;-88
2023/05/31 06:23:07;;;;;;;;;;;13.90;61.20;;;;;;4084547;29;19914;-84
2023/05/31 06:25:28;;;;;;;;;;;13.90;61.00;;;;;;4071235;29;20012;-87
2023/05/31 06:27:49;;;;;;;;;;;14.00;61.00;;;;;;4083780;29;19914;-85
2023/05/31 06:30:13;;;;;;;;;;;14.00;60.90;;;;;;4084056;29;19919;-86
2023/05/31 06:33:03;;;;;;;;;;;14.10;60.60;;;;;;4084944;29;19918;-85
2023/05/31 06:35:30;;;;;;;;;;;14.20;60.50;;;;;;4085047;29;20390;-84
2023/05/31 06:37:51;;;;;;;;;;;14.10;60.20;;;;;;4084214;29;19925;-86
2023/05/31 06:40:12;;;;;;;;;;;14.10;60.00;;;;;;4087791;29;19921;-86
2023/05/31 06:42:32;;;;;;;;;;;14.10;60.10;;;;;;4088387;29;19933;-85
2023/05/31 06:44:53;;;;;;;;;;;14.10;59.90;;;;;;4084855;29;19915;-86
2023/05/31 06:47:14;;;;;;;;;;;14.20;59.90;;;;;;4084727;29;20414;-87
2023/05/31 06:49:35;;;;;;;;;;;14.10;59.90;;;;;;4083227;29;20097;-86
2023/05/31 06:51:57;;;;;;;;;;;14.10;60.20;;;;;;4083751;29;20595;-87
2023/05/31 06:54:18;;;;;;;;;;;14.10;60.00;;;;;;4082604;29;19919;-86
2023/05/31 06:56:39;;;;;;;;;;;14.10;60.20;;;;;;4084345;29;19926;-87
2023/05/31 06:58:59;;;;;;;;;;;14.10;60.10;;;;;;4085247;29;20621;-86
2023/05/31 07:01:20;;;;;;;;;;;14.10;60.50;;;;;;4085996;29;19918;-86
2023/05/31 07:03:41;;;;;;;;;;;14.20;60.60;;;;;;4074161;29;19925;-86
2023/05/31 07:06:02;;;;;;;;;;;14.20;60.30;;;;;;4086848;29;20665;-86
2023/05/31 07:08:23;;;;;;;;;;;14.20;60.60;;;;;;4086832;29;19985;-84
2023/05/31 07:10:45;;;;;;;;;;;14.20;60.50;;;;;;4083994;29;19922;-87
2023/05/31 07:13:06;;;;;;;;;;;14.30;60.80;;;;;;4087680;29;19918;-86
2023/05/31 07:15:27;;;;;;;;;;;14.30;60.90;;;;;;4073452;29;19919;-86
2023/05/31 07:17:48;;;;;;;;;;;14.40;61.00;;;;;;4089380;29;19970;-87
2023/05/31 07:20:09;;;;;;;;;;;14.50;61.00;;;;;;4073428;29;19927;-86
2023/05/31 07:22:30;;;;;;;;;;;14.50;60.90;;;;;;4085924;29;20345;-87
2023/05/31 07:24:51;;;;;;;;;;;14.50;60.70;;;;;;4088654;29;20439;-88
2023/05/31 07:27:12;;;;;;;;;;;14.70;60.70;;;;;;4089065;29;19911;-86
2023/05/31 07:29:32;;;;;;;;;;;14.60;60.60;;;;;;4073697;29;19923;-87
2023/05/31 07:31:53;;;;;;;;;;;14.70;60.50;;;;;;4086934;29;19934;-86
2023/05/31 07:34:14;;;;;;;;;;;14.80;60.40;;;;;;4084199;29;20387;-86
2023/05/31 07:36:35;;;;;;;;;;;14.80;60.00;;;;;;4090549;29;19923;-88
2023/05/31 07:38:56;;;;;;;;;;;14.80;59.90;;;;;;4082764;29;19919;-87
2023/05/31 07:41:17;;;;;;;;;;;14.90;60.10;;;;;;4071296;29;19915;-86
2023/05/31 07:43:39;;;;;;;;;;;15.00;60.10;;;;;;4082548;29;19915;-86
2023/05/31 07:46:00;;;;;;;;;;;14.90;60.00;;;;;;4084357;29;19919;-86
2023/05/31 07:48:21;;;;;;;;;;;15.00;60.20;;;;;;4082182;28;19923;-85
2023/05/31 07:50:42;;;;;;;;;;;15.00;59.90;;;;;;4085760;29;19918;-87
2023/05/31 07:53:02;;;;;;;;;;;15.10;59.50;;;;;;4082295;29;19925;-86
2023/05/31 07:55:23;;;;;;;;;;;15.20;59.50;;;;;;4085397;28;19918;-85
2023/05/31 07:57:44;;;;;;;;;;;15.10;59.40;;;;;;4088182;29;19911;-86
2023/05/31 08:00:07;;;;;;;;;;;15.20;59.30;;;;;;4070934;29;19976;-87
2023/05/31 08:02:28;;;;;;;;;;;15.30;59.10;;;;;;4085846;29;19915;-87
2023/05/31 08:04:49;;;;;;;;;;;15.30;59.10;;;;;;4086643;29;19919;-85
2023/05/31 08:07:10;;;;;;;;;;;15.30;59.20;;;;;;4083930;29;19915;-86
2023/05/31 08:09:31;;;;;;;;;;;15.40;59.10;;;;;;4070599;29;19915;-88
2023/05/31 08:11:52;;;;;;;;;;;15.50;59.20;;;;;;4083937;29;19923;-87
2023/05/31 08:14:13;;;;;;;;;;;15.50;59.10;;;;;;4069413;29;19962;-86
2023/05/31 08:16:34;;;;;;;;;;;15.50;59.10;;;;;;4076069;29;20375;-85
2023/05/31 08:18:55;;;;;;;;;;;15.70;59.10;;;;;;4086269;29;19911;-86
2023/05/31 08:21:15;;;;;;;;;;;15.70;59.10;;;;;;4085433;29;19966;-86
2023/05/31 08:23:36;;;;;;;;;;;15.80;59.00;;;;;;4081762;29;19922;-86
2023/05/31 08:25:57;;;;;;;;;;;15.90;58.80;;;;;;4087102;29;20290;-86
2023/05/31 08:28:18;;;;;;;;;;;15.90;58.10;;;;;;4085681;29;20279;-85
2023/05/31 08:30:39;;;;;;;;;;;16.00;58.10;;;;;;4084262;29;20041;-87
2023/05/31 08:32:59;;;;;;;;;;;16.10;57.70;;;;;;4082991;29;19915;-85
2023/05/31 08:35:20;;;;;;;;;;;16.20;58.00;;;;;;4086039;29;19944;-87
2023/05/31 08:37:54;;;;;;;;;;;16.30;58.00;;;;;;4085104;29;20056;-87
2023/05/31 08:40:36;;;;;;;;;;;16.30;58.10;;;;;;4069486;29;19919;-86
2023/05/31 08:43:20;;;;;;;;;;;;;;;;;;;;;
2023/05/31 08:45:44;;;;;;;;;;;16.50;57.80;;;;;;4083771;29;20391;-87
2023/05/31 08:48:23;;;;;;;;;;;16.70;57.50;;;;;;4087015;29;20009;-87
2023/05/31 08:50:44;;;;;;;;;;;16.70;57.00;;;;;;4084035;29;20414;-86
2023/05/31 08:53:08;;;;;;;;;;;16.90;56.10;;;;;;4085563;29;20382;-86
2023/05/31 08:55:32;;;;;;;;;;;17.00;56.20;;;;;;4081629;29;19923;-87
2023/05/31 08:57:53;;;;;;;;;;;17.00;55.70;;;;;;4085963;29;20405;-85
2023/05/31 09:00:15;;;;;;;;;;;17.10;55.70;;;;;;4084562;29;19969;-88
2023/05/31 09:02:36;;;;;;;;;;;17.20;55.80;;;;;;4071398;29;19911;-87
2023/05/31 09:04:56;;;;;;;;;;;17.40;55.40;;;;;;4071083;29;19915;-89
2023/05/31 09:07:20;;;;;;;;;;;17.40;55.00;;;;;;4080847;29;20643;-86
2023/05/31 09:09:46;;;;;;;;;;;17.60;55.30;;;;;;4073023;29;19915;-86
2023/05/31 09:12:07;;;;;;;;;;;17.60;54.70;;;;;;4082160;29;19922;-85
2023/05/31 09:14:28;;;;;;;;;;;17.60;54.70;;;;;;4085945;29;20603;-87
2023/05/31 09:16:50;;;;;;;;;;;17.70;54.60;;;;;;4080815;29;19919;-86
2023/05/31 09:19:11;;;;;;;;;;;17.80;53.70;;;;;;4083035;29;19922;-85
2023/05/31 09:21:41;;;;;;;;;;;17.80;52.90;;;;;;4085630;29;20005;-84
2023/05/31 09:24:02;;;;;;;;;;;17.80;52.90;;;;;;4065636;29;19929;-85
2023/05/31 09:26:23;;;;;;;;;;;17.90;53.30;;;;;;4085189;29;19982;-85
2023/05/31 09:28:47;;;;;;;;;;;17.90;53.30;;;;;;4085815;29;19915;-86
2023/05/31 09:31:08;;;;;;;;;;;17.90;53.40;;;;;;4084221;29;19918;-86
2023/05/31 09:33:48;;;;;;;;;;;18.00;53.50;;;;;;4085034;29;19915;-86
2023/05/31 09:36:10;;;;;;;;;;;18.00;53.60;;;;;;4069408;29;19919;-86
2023/05/31 09:38:34;;;;;;;;;;;18.00;53.10;;;;;;4084826;29;19919;-88
2023/05/31 09:40:55;;;;;;;;;;;18.00;53.00;;;;;;4081206;29;19915;-86
2023/05/31 09:43:16;;;;;;;;;;;18.00;52.80;;;;;;4085784;29;19977;-88
2023/05/31 09:45:36;;;;;;;;;;;18.00;52.80;;;;;;4084799;29;19918;-85
2023/05/31 09:47:57;;;;;;;;;;;18.00;53.30;;;;;;4065800;29;19915;-86
2023/05/31 09:50:19;;;;;;;;;;;18.00;53.30;;;;;;4085006;29;19934;-86
2023/05/31 09:52:40;;;;;;;;;;;18.00;53.80;;;;;;4081457;29;20315;-86
2023/05/31 09:55:04;;;;;;;;;;;18.00;54.00;;;;;;4079962;29;19922;-87
2023/05/31 09:57:31;;;;;;;;;;;18.10;54.00;;;;;;4069456;29;19915;-85
2023/05/31 09:59:56;;;;;;;;;;;18.20;54.00;;;;;;4068512;29;20386;-86
2023/05/31 10:02:25;;;;;;;;;;;18.20;53.80;;;;;;4063298;29;20105;-86
2023/05/31 10:04:46;;;;;;;;;;;18.20;53.10;;;;;;4068782;29;19926;-85
2023/05/31 10:07:07;;;;;;;;;;;18.20;53.40;;;;;;4082201;29;19942;-87
2023/05/31 10:09:32;;;;;;;;;;;18.30;53.50;;;;;;4079791;29;19943;-87
2023/05/31 10:11:53;;;;;;;;;;;18.30;53.30;;;;;;4081864;29;20221;-86
2023/05/31 10:14:27;;;;;;;;;;;18.40;53.20;;;;;;4080786;29;19943;-86
2023/05/31 10:16:54;;;;;;;;;;;18.40;53.00;;;;;;4081053;29;19915;-88
2023/05/31 10:19:58;;;;;;;;;;;18.40;52.90;;;;;;4077372;29;19916;-86
2023/05/31 10:22:17;;;;;;;;;;;18.40;53.00;;;;;;4083665;29;19925;-88
2023/05/31 10:24:47;;;;;;;;;;;18.40;53.10;;;;;;4083126;29;19962;-86
2023/05/31 10:30:05;;;;;;;;;;;18.40;52.50;;;;;;4084651;29;19919;-87
2023/05/31 10:32:45;;;;;;;;;;;18.40;52.40;;;;;;4082354;29;20043;-86
2023/05/31 10:35:19;;;;;;;;;;;18.40;52.70;;;;;;4081724;29;19921;-86
2023/05/31 10:37:44;;;;;;;;;;;18.40;52.80;;;;;;4066973;29;19923;-86
2023/05/31 10:40:29;;;;;;;;;;;18.50;52.90;;;;;;4071906;29;19922;-86
2023/05/31 10:43:22;;;;;;;;;;;18.40;52.80;;;;;;4081636;29;20430;-87
2023/05/31 10:45:56;;;;;;;;;;;18.40;52.40;;;;;;4081282;29;19922;-86
2023/05/31 10:48:40;;;;;;;;;;;18.40;52.40;;;;;;4076624;29;19926;-86
2023/05/31 10:51:06;;;;;;;;;;;18.40;52.20;;;;;;4080352;29;20033;-85
2023/05/31 10:53:34;;;;;;;;;;;18.40;51.80;;;;;;4081281;29;19915;-87
2023/05/31 10:56:22;;;;;;;;;;;18.30;52.10;;;;;;4079482;29;19915;-86
2023/05/31 10:59:21;;;;;;;;;;;18.30;52.20;;;;;;4015855;29;19920;-87
2023/05/31 11:01:42;;;;;;;;;;;18.30;52.00;;;;;;4018260;29;20004;-86
2023/05/31 11:04:17;;;;;;;;;;;18.30;52.40;;;;;;4009478;29;19925;-88
2023/05/31 11:06:38;;;;;;;;;;;18.30;52.80;;;;;;4016671;29;19968;-86
2023/05/31 11:08:59;;;;;;;;;;;18.20;52.50;;;;;;4007926;29;20430;-86
2023/05/31 11:11:35;;;;;;;;;;;18.20;52.10;;;;;;4017379;29;19955;-86
2023/05/31 11:14:06;;;;;;;;;;;18.20;52.00;;;;;;4015953;29;19948;-87
2023/05/31 11:16:28;;;;;;;;;;;18.20;51.70;;;;;;4018236;29;19920;-87
2023/05/31 11:19:01;;;;;;;;;;;18.10;51.70;;;;;;4020238;29;19925;-86
2023/05/31 11:21:40;;;;;;;;;;;18.00;52.00;;;;;;4019093;29;19927;-87
2023/05/31 11:24:06;;;;;;;;;;;18.00;52.40;;;;;;4020382;29;19932;-88
2023/05/31 11:26:27;;;;;;;;;;;17.90;52.60;;;;;;4003397;29;19933;-86
2023/05/31 11:28:57;;;;;;;;;;;17.90;52.10;;;;;;4039205;29;19915;-88
2023/05/31 11:31:37;;;;;;;;;;;17.90;51.00;;;;;;4081633;29;19966;-87
2023/05/31 11:34:17;;;;;;;;;;;17.90;51.30;;;;;;4083437;29;19930;-88
2023/05/31 11:36:38;;;;;;;;;;;18.00;51.60;;;;;;4083756;29;19923;-87
2023/05/31 11:39:00;;;;;;;;;;;17.90;51.70;;;;;;4047243;29;19947;-87
2023/05/31 11:41:36;;;;;;;;;;;17.90;51.90;;;;;;4067144;29;19919;-88
2023/05/31 11:43:57;;;;;;;;;;;17.90;52.00;;;;;;4066482;29;19915;-87
2023/05/31 11:46:18;;;;;;;;;;;17.90;51.70;;;;;;4068626;29;20426;-86
2023/05/31 11:48:40;;;;;;;;;;;18.00;51.60;;;;;;4067570;29;19930;-90
2023/05/31 11:51:01;;;;;;;;;;;17.90;51.10;;;;;;4062832;29;19927;-87
2023/05/31 11:56:48;;;;;;;;;;;17.90;51.00;;;;;;4066411;29;20455;-88
2023/05/31 11:59:21;;;;;;;;;;;17.90;51.30;;;;;;4094678;23;20054;-86
2023/05/31 12:01:42;;;;;;;;;;;17.80;51.20;;;;;;4073308;29;20695;-85
2023/05/31 12:04:03;;;;;;;;;;;17.80;51.60;;;;;;4073343;29;19923;-84
2023/05/31 12:06:23;;;;;;;;;;;17.90;51.40;;;;;;4068839;29;19919;-85
2023/05/31 12:08:44;;;;;;;;;;;17.80;51.00;;;;;;4058164;29;20005;-84
2023/05/31 12:11:06;;;;;;;;;;;17.90;50.90;;;;;;4058211;29;19927;-86
2023/05/31 12:13:29;;;;;;;;;;;17.90;51.20;;;;;;4061105;29;20294;-86
2023/05/31 12:15:53;;;;;;;;;;;18.00;51.40;;;;;;4068833;29;19929;-85
2023/05/31 12:18:14;;;;;;;;;;;18.00;51.30;;;;;;4063015;29;19915;-86
2023/05/31 12:20:35;;;;;;;;;;;18.00;51.20;;;;;;4071580;29;19919;-85
2023/05/31 12:23:09;;;;;;;;;;;18.00;51.10;;;;;;4060475;29;19958;-85
2023/05/31 12:25:31;;;;;;;;;;;18.00;51.20;;;;;;4073711;29;20436;-87
2023/05/31 12:27:51;;;;;;;;;;;18.10;51.00;;;;;;4061754;29;19934;-85
2023/05/31 12:30:17;;;;;;;;;;;18.10;51.10;;;;;;4073710;29;19923;-84
2023/05/31 12:42:08;;;;;;;;;;;18.00;51.00;;;;;;4083052;23;19969;-88
2023/05/31 12:44:30;;;;;;;;;;;18.00;51.20;;;;;;4074284;29;20030;-88
2023/05/31 12:46:51;;;;;;;;;;;18.00;51.40;;;;;;4073200;29;20275;-86
2023/05/31 12:49:20;;;;;;;;;;;18.10;50.90;;;;;;4055652;29;19922;-85
2023/05/31 12:51:41;;;;;;;;;;;18.00;50.90;;;;;;4059561;29;19927;-85
2023/05/31 12:54:02;;;;;;;;;;;18.10;51.10;;;;;;4057117;29;19915;-85
2023/05/31 12:56:23;;;;;;;;;;;18.10;51.10;;;;;;4054987;29;20376;-84
2023/05/31 12:58:44;;;;;;;;;;;18.10;51.30;;;;;;4061242;29;20402;-85
2023/05/31 13:01:07;;;;;;;;;;;18.10;50.60;;;;;;4045571;29;20372;-87
2023/05/31 13:03:28;;;;;;;;;;;18.10;50.00;;;;;;4059475;29;19938;-85
2023/05/31 13:05:49;;;;;;;;;;;18.10;50.30;;;;;;4047530;29;20216;-88
2023/05/31 13:08:09;;;;;;;;;;;18.00;50.20;;;;;;4047379;29;20498;-85
2023/05/31 13:10:30;;;;;;;;;;;18.10;50.50;;;;;;4055719;29;19927;-86
2023/05/31 13:12:51;;;;;;;;;;;18.10;50.70;;;;;;4059364;29;20359;-86
2023/05/31 13:15:12;;;;;;;;;;;18.10;50.80;;;;;;4051016;29;20008;-85
2023/05/31 13:17:33;;;;;;;;;;;18.20;50.60;;;;;;4059677;29;20037;-85
2023/05/31 13:19:54;;;;;;;;;;;18.10;50.30;;;;;;4058756;29;19926;-85
2023/05/31 13:22:15;;;;;;;;;;;18.10;50.50;;;;;;4060489;29;20379;-87
2023/05/31 13:24:36;;;;;;;;;;;18.10;50.40;;;;;;4061200;29;19919;-85
2023/05/31 13:26:57;;;;;;;;;;;18.10;50.50;;;;;;4050264;29;19971;-87
2023/05/31 13:29:17;;;;;;;;;;;18.10;50.60;;;;;;4057271;29;20546;-85
2023/05/31 13:31:39;;;;;;;;;;;18.20;50.70;;;;;;4057821;29;20355;-85
2023/05/31 13:33:59;;;;;;;;;;;18.10;50.80;;;;;;4058070;29;19919;-84
2023/05/31 13:36:21;;;;;;;;;;;18.10;50.40;;;;;;4060487;29;20353;-84
2023/05/31 13:38:42;;;;;;;;;;;18.00;49.90;;;;;;4059165;29;19920;-85
2023/05/31 13:41:05;;;;;;;;;;;18.10;50.30;;;;;;4058005;29;19935;-86
2023/05/31 13:43:26;;;;;;;;;;;18.00;50.40;;;;;;4049872;29;19958;-84
2023/05/31 13:45:47;;;;;;;;;;;18.00;50.90;;;;;;4053994;29;20200;-86
2023/05/31 13:48:07;;;;;;;;;;;17.90;51.00;;;;;;4048145;29;19927;-84
2023/05/31 13:50:28;;;;;;;;;;;18.00;51.30;;;;;;4050487;29;20364;-84
2023/05/31 13:52:49;;;;;;;;;;;18.00;51.80;;;;;;4049180;29;19919;-84
2023/05/31 13:55:10;;;;;;;;;;;18.00;51.90;;;;;;4063897;29;20002;-88
2023/05/31 13:57:31;;;;;;;;;;;17.90;51.80;;;;;;4071167;29;19921;-86
2023/05/31 13:59:52;;;;;;;;;;;18.00;52.20;;;;;;4063898;29;20320;-86
2023/05/31 14:02:13;;;;;;;;;;;18.00;52.40;;;;;;4068480;29;19978;-85
2023/05/31 14:04:33;;;;;;;;;;;18.00;52.10;;;;;;4070172;29;19912;-85
2023/05/31 14:06:54;;;;;;;;;;;18.10;51.90;;;;;;4072819;29;19927;-87
2023/05/31 14:09:17;;;;;;;;;;;18.10;52.10;;;;;;4064334;29;19915;-86
2023/05/31 14:11:37;;;;;;;;;;;18.20;52.10;;;;;;4063632;29;19967;-85